sensor_id;sensor_type;location;lat;lon;timestamp;P1;durP1;ratioP1;P2;durP2;ratioP2
58446;SDS011;44240;51.840;7.258;2024-02-14T00:00:18;3.97;;;3.42;;
58446;SDS011;44240;51.840;7.258;2024-02-14T00:02:46;3.30;;;3.00;;
58446;SDS011;44240;51.840;7.258;2024-02-14T00:05:17;5.47;;;3.20;;
58446;SDS011;44240;51.840;7.258;2024-02-14T00:07:44;5.93;;;3.15;;
58446;SDS011;44240;51.840;7.258;2024-02-14T00:10:11;5.03;;;3.40;;
58446;SDS011;44240;51.840;7.258;2024-02-14T00:12:38;9.10;;;3.53;;
58446;SDS011;44240;51.840;7.258;2024-02-14T00:15:05;14.32;;;4.38;;
58446;SDS011;44240;51.840;7.258;2024-02-14T00:17:33;7.57;;;4.20;;
58446;SDS011;44240;51.840;7.258;2024-02-14T00:20:01;6.28;;;3.60;;
58446;SDS011;44240;51.840;7.258;2024-02-14T00:22:30;6.72;;;3.88;;
58446;SDS011;44240;51.840;7.258;2024-02-14T00:24:57;4.75;;;3.38;;
58446;SDS011;44240;51.840;7.258;2024-02-14T00:27:24;6.65;;;4.07;;
58446;SDS011;44240;51.840;7.258;2024-02-14T00:29:52;6.45;;;3.90;;
58446;SDS011;44240;51.840;7.258;2024-02-14T00:32:20;5.22;;;3.40;;
58446;SDS011;44240;51.840;7.258;2024-02-14T00:34:47;5.75;;;4.10;;
58446;SDS011;44240;51.840;7.258;2024-02-14T00:37:16;6.63;;;4.07;;
58446;SDS011;44240;51.840;7.258;2024-02-14T00:39:43;8.00;;;4.13;;
58446;SDS011;44240;51.840;7.258;2024-02-14T00:42:09;5.68;;;4.43;;
58446;SDS011;44240;51.840;7.258;2024-02-14T00:44:37;7.05;;;3.92;;
58446;SDS011;44240;51.840;7.258;2024-02-14T00:47:04;6.28;;;4.53;;
58446;SDS011;44240;51.840;7.258;2024-02-14T00:49:33;7.50;;;4.10;;
58446;SDS011;44240;51.840;7.258;2024-02-14T00:52:01;5.75;;;3.47;;
58446;SDS011;44240;51.840;7.258;2024-02-14T00:54:28;7.22;;;4.07;;
58446;SDS011;44240;51.840;7.258;2024-02-14T00:56:55;6.28;;;4.05;;
58446;SDS011;44240;51.840;7.258;2024-02-14T00:59:21;5.50;;;4.13;;
58446;SDS011;44240;51.840;7.258;2024-02-14T01:01:48;5.53;;;3.58;;
58446;SDS011;44240;51.840;7.258;2024-02-14T01:04:15;7.45;;;3.13;;
58446;SDS011;44240;51.840;7.258;2024-02-14T01:06:43;6.53;;;4.05;;
58446;SDS011;44240;51.840;7.258;2024-02-14T01:09:10;9.68;;;4.13;;
58446;SDS011;44240;51.840;7.258;2024-02-14T01:11:37;5.63;;;4.03;;
58446;SDS011;44240;51.840;7.258;2024-02-14T01:14:04;6.65;;;4.18;;
58446;SDS011;44240;51.840;7.258;2024-02-14T01:16:31;5.80;;;3.92;;
58446;SDS011;44240;51.840;7.258;2024-02-14T01:18:58;6.35;;;3.75;;
58446;SDS011;44240;51.840;7.258;2024-02-14T01:21:25;6.35;;;4.05;;
58446;SDS011;44240;51.840;7.258;2024-02-14T01:23:52;8.57;;;4.03;;
58446;SDS011;44240;51.840;7.258;2024-02-14T01:26:18;6.47;;;3.92;;
58446;SDS011;44240;51.840;7.258;2024-02-14T01:28:47;7.28;;;3.88;;
58446;SDS011;44240;51.840;7.258;2024-02-14T01:31:14;5.57;;;4.10;;
58446;SDS011;44240;51.840;7.258;2024-02-14T01:33:41;7.82;;;4.20;;
58446;SDS011;44240;51.840;7.258;2024-02-14T01:36:08;4.82;;;3.63;;
58446;SDS011;44240;51.840;7.258;2024-02-14T01:38:35;4.97;;;3.08;;
58446;SDS011;44240;51.840;7.258;2024-02-14T01:41:02;4.40;;;3.58;;
58446;SDS011;44240;51.840;7.258;2024-02-14T01:43:30;6.53;;;3.95;;
58446;SDS011;44240;51.840;7.258;2024-02-14T01:45:58;5.35;;;3.80;;
58446;SDS011;44240;51.840;7.258;2024-02-14T01:48:32;5.85;;;3.55;;
58446;SDS011;44240;51.840;7.258;2024-02-14T01:51:01;7.07;;;3.45;;
58446;SDS011;44240;51.840;7.258;2024-02-14T01:53:31;4.82;;;3.40;;
58446;SDS011;44240;51.840;7.258;2024-02-14T01:55:58;4.78;;;4.10;;
58446;SDS011;44240;51.840;7.258;2024-02-14T01:58:26;7.40;;;4.10;;
58446;SDS011;44240;51.840;7.258;2024-02-14T02:00:55;4.05;;;3.50;;
58446;SDS011;44240;51.840;7.258;2024-02-14T02:03:24;5.70;;;3.35;;
58446;SDS011;44240;51.840;7.258;2024-02-14T02:05:52;5.40;;;3.28;;
58446;SDS011;44240;51.840;7.258;2024-02-14T02:08:20;4.95;;;3.65;;
58446;SDS011;44240;51.840;7.258;2024-02-14T02:10:47;3.83;;;3.00;;
58446;SDS011;44240;51.840;7.258;2024-02-14T02:13:14;5.68;;;3.42;;
58446;SDS011;44240;51.840;7.258;2024-02-14T02:15:42;5.15;;;2.92;;
58446;SDS011;44240;51.840;7.258;2024-02-14T02:18:12;4.45;;;2.90;;
58446;SDS011;44240;51.840;7.258;2024-02-14T02:20:39;3.88;;;2.50;;
58446;SDS011;44240;51.840;7.258;2024-02-14T02:23:10;5.95;;;2.95;;
58446;SDS011;44240;51.840;7.258;2024-02-14T02:28:08;6.70;;;2.67;;
58446;SDS011;44240;51.840;7.258;2024-02-14T02:30:35;6.25;;;3.47;;
58446;SDS011;44240;51.840;7.258;2024-02-14T02:33:03;6.93;;;3.10;;
58446;SDS011;44240;51.840;7.258;2024-02-14T02:35:31;4.95;;;3.22;;
58446;SDS011;44240;51.840;7.258;2024-02-14T02:37:58;4.00;;;2.60;;
58446;SDS011;44240;51.840;7.258;2024-02-14T02:40:25;4.22;;;2.70;;
58446;SDS011;44240;51.840;7.258;2024-02-14T02:42:53;3.42;;;2.50;;
58446;SDS011;44240;51.840;7.258;2024-02-14T02:45:20;5.07;;;2.60;;
58446;SDS011;44240;51.840;7.258;2024-02-14T02:47:47;3.97;;;2.28;;
58446;SDS011;44240;51.840;7.258;2024-02-14T02:50:16;4.18;;;2.35;;
58446;SDS011;44240;51.840;7.258;2024-02-14T02:52:43;3.75;;;2.60;;
58446;SDS011;44240;51.840;7.258;2024-02-14T02:55:10;4.20;;;2.42;;
58446;SDS011;44240;51.840;7.258;2024-02-14T02:57:37;2.67;;;2.08;;
58446;SDS011;44240;51.840;7.258;2024-02-14T03:00:06;3.45;;;2.10;;
58446;SDS011;44240;51.840;7.258;2024-02-14T03:02:39;3.72;;;2.40;;
58446;SDS011;44240;51.840;7.258;2024-02-14T03:05:09;4.30;;;2.88;;
58446;SDS011;44240;51.840;7.258;2024-02-14T03:07:37;3.60;;;2.97;;
58446;SDS011;44240;51.840;7.258;2024-02-14T03:10:04;4.13;;;3.03;;
58446;SDS011;44240;51.840;7.258;2024-02-14T03:12:31;5.35;;;3.35;;
58446;SDS011;44240;51.840;7.258;2024-02-14T03:14:59;9.23;;;3.30;;
58446;SDS011;44240;51.840;7.258;2024-02-14T03:17:26;5.15;;;3.00;;
58446;SDS011;44240;51.840;7.258;2024-02-14T03:19:55;3.70;;;2.83;;
58446;SDS011;44240;51.840;7.258;2024-02-14T03:22:23;6.18;;;3.10;;
58446;SDS011;44240;51.840;7.258;2024-02-14T03:24:49;6.35;;;3.40;;
58446;SDS011;44240;51.840;7.258;2024-02-14T03:27:17;4.53;;;3.40;;
58446;SDS011;44240;51.840;7.258;2024-02-14T03:29:44;5.82;;;4.13;;
58446;SDS011;44240;51.840;7.258;2024-02-14T03:32:11;9.57;;;3.65;;
58446;SDS011;44240;51.840;7.258;2024-02-14T03:34:38;6.28;;;3.58;;
58446;SDS011;44240;51.840;7.258;2024-02-14T03:37:05;4.55;;;3.38;;
58446;SDS011;44240;51.840;7.258;2024-02-14T03:39:33;5.10;;;3.60;;
58446;SDS011;44240;51.840;7.258;2024-02-14T03:42:00;6.10;;;3.42;;
58446;SDS011;44240;51.840;7.258;2024-02-14T03:44:32;4.93;;;4.10;;
58446;SDS011;44240;51.840;7.258;2024-02-14T03:46:59;4.88;;;3.63;;
58446;SDS011;44240;51.840;7.258;2024-02-14T03:49:26;6.05;;;4.43;;
58446;SDS011;44240;51.840;7.258;2024-02-14T03:51:53;5.28;;;4.30;;
58446;SDS011;44240;51.840;7.258;2024-02-14T03:54:21;5.55;;;4.20;;
58446;SDS011;44240;51.840;7.258;2024-02-14T03:56:48;5.90;;;3.72;;
58446;SDS011;44240;51.840;7.258;2024-02-14T03:59:15;5.22;;;3.70;;
58446;SDS011;44240;51.840;7.258;2024-02-14T04:01:45;7.95;;;4.68;;
58446;SDS011;44240;51.840;7.258;2024-02-14T04:04:12;7.18;;;4.55;;
58446;SDS011;44240;51.840;7.258;2024-02-14T04:06:39;7.15;;;5.10;;
58446;SDS011;44240;51.840;7.258;2024-02-14T04:09:08;5.93;;;4.93;;
58446;SDS011;44240;51.840;7.258;2024-02-14T04:11:35;7.95;;;5.40;;
58446;SDS011;44240;51.840;7.258;2024-02-14T04:14:02;7.47;;;5.43;;
58446;SDS011;44240;51.840;7.258;2024-02-14T04:16:29;6.93;;;5.00;;
58446;SDS011;44240;51.840;7.258;2024-02-14T04:18:56;7.35;;;5.10;;
58446;SDS011;44240;51.840;7.258;2024-02-14T04:21:23;8.13;;;5.53;;
58446;SDS011;44240;51.840;7.258;2024-02-14T04:23:50;7.68;;;5.47;;
58446;SDS011;44240;51.840;7.258;2024-02-14T04:26:20;8.40;;;6.00;;
58446;SDS011;44240;51.840;7.258;2024-02-14T04:28:47;9.30;;;5.65;;
58446;SDS011;44240;51.840;7.258;2024-02-14T04:31:14;10.15;;;6.00;;
58446;SDS011;44240;51.840;7.258;2024-02-14T04:33:42;9.18;;;6.22;;
58446;SDS011;44240;51.840;7.258;2024-02-14T04:36:09;8.15;;;5.05;;
58446;SDS011;44240;51.840;7.258;2024-02-14T04:38:37;7.03;;;5.07;;
58446;SDS011;44240;51.840;7.258;2024-02-14T04:41:04;7.80;;;5.72;;
58446;SDS011;44240;51.840;7.258;2024-02-14T04:43:31;9.13;;;7.05;;
58446;SDS011;44240;51.840;7.258;2024-02-14T04:45:58;7.40;;;5.95;;
58446;SDS011;44240;51.840;7.258;2024-02-14T04:48:25;10.55;;;6.50;;
58446;SDS011;44240;51.840;7.258;2024-02-14T04:50:53;9.60;;;6.80;;
58446;SDS011;44240;51.840;7.258;2024-02-14T04:53:20;9.85;;;6.78;;
58446;SDS011;44240;51.840;7.258;2024-02-14T04:55:47;8.45;;;6.43;;
58446;SDS011;44240;51.840;7.258;2024-02-14T04:58:14;11.25;;;7.80;;
58446;SDS011;44240;51.840;7.258;2024-02-14T05:00:41;9.57;;;7.95;;
58446;SDS011;44240;51.840;7.258;2024-02-14T05:03:08;9.95;;;7.80;;
58446;SDS011;44240;51.840;7.258;2024-02-14T05:05:36;11.52;;;8.20;;
58446;SDS011;44240;51.840;7.258;2024-02-14T05:08:04;9.40;;;7.72;;
58446;SDS011;44240;51.840;7.258;2024-02-14T05:10:31;8.50;;;7.05;;
58446;SDS011;44240;51.840;7.258;2024-02-14T05:12:58;9.70;;;7.45;;
58446;SDS011;44240;51.840;7.258;2024-02-14T05:15:25;9.68;;;7.07;;
58446;SDS011;44240;51.840;7.258;2024-02-14T05:17:52;8.15;;;6.47;;
58446;SDS011;44240;51.840;7.258;2024-02-14T05:20:19;10.13;;;6.03;;
58446;SDS011;44240;51.840;7.258;2024-02-14T05:22:46;11.15;;;7.07;;
58446;SDS011;44240;51.840;7.258;2024-02-14T05:25:13;8.35;;;6.55;;
58446;SDS011;44240;51.840;7.258;2024-02-14T05:27:40;6.43;;;4.82;;
58446;SDS011;44240;51.840;7.258;2024-02-14T05:30:07;7.82;;;6.13;;
58446;SDS011;44240;51.840;7.258;2024-02-14T05:32:37;10.07;;;6.93;;
58446;SDS011;44240;51.840;7.258;2024-02-14T05:35:06;7.07;;;5.03;;
58446;SDS011;44240;51.840;7.258;2024-02-14T05:37:34;6.25;;;5.20;;
58446;SDS011;44240;51.840;7.258;2024-02-14T05:40:05;6.90;;;5.65;;
58446;SDS011;44240;51.840;7.258;2024-02-14T05:42:33;6.82;;;4.70;;
58446;SDS011;44240;51.840;7.258;2024-02-14T05:45:00;6.97;;;4.88;;
58446;SDS011;44240;51.840;7.258;2024-02-14T05:47:29;6.45;;;3.55;;
58446;SDS011;44240;51.840;7.258;2024-02-14T05:49:56;5.60;;;4.80;;
58446;SDS011;44240;51.840;7.258;2024-02-14T05:52:23;5.60;;;4.35;;
58446;SDS011;44240;51.840;7.258;2024-02-14T05:54:50;8.40;;;4.85;;
58446;SDS011;44240;51.840;7.258;2024-02-14T05:57:16;4.35;;;2.90;;
58446;SDS011;44240;51.840;7.258;2024-02-14T05:59:43;7.03;;;4.70;;
58446;SDS011;44240;51.840;7.258;2024-02-14T06:02:11;5.28;;;3.83;;
58446;SDS011;44240;51.840;7.258;2024-02-14T06:04:38;5.07;;;3.25;;
58446;SDS011;44240;51.840;7.258;2024-02-14T06:07:04;4.88;;;3.97;;
58446;SDS011;44240;51.840;7.258;2024-02-14T06:09:33;4.63;;;3.47;;
58446;SDS011;44240;51.840;7.258;2024-02-14T06:11:59;7.53;;;3.95;;
58446;SDS011;44240;51.840;7.258;2024-02-14T06:14:26;4.38;;;3.55;;
58446;SDS011;44240;51.840;7.258;2024-02-14T06:16:55;4.95;;;4.25;;
58446;SDS011;44240;51.840;7.258;2024-02-14T06:19:22;4.53;;;3.85;;
58446;SDS011;44240;51.840;7.258;2024-02-14T06:21:49;5.93;;;4.18;;
58446;SDS011;44240;51.840;7.258;2024-02-14T06:24:16;5.57;;;3.72;;
58446;SDS011;44240;51.840;7.258;2024-02-14T06:26:45;6.13;;;4.07;;
58446;SDS011;44240;51.840;7.258;2024-02-14T06:29:12;5.55;;;4.43;;
58446;SDS011;44240;51.840;7.258;2024-02-14T06:31:39;5.90;;;4.05;;
58446;SDS011;44240;51.840;7.258;2024-02-14T06:34:06;7.15;;;4.97;;
58446;SDS011;44240;51.840;7.258;2024-02-14T06:36:34;5.68;;;3.80;;
58446;SDS011;44240;51.840;7.258;2024-02-14T06:39:02;4.68;;;3.05;;
58446;SDS011;44240;51.840;7.258;2024-02-14T06:41:29;5.15;;;4.03;;
58446;SDS011;44240;51.840;7.258;2024-02-14T06:43:56;3.97;;;3.55;;
58446;SDS011;44240;51.840;7.258;2024-02-14T06:46:23;6.68;;;4.07;;
58446;SDS011;44240;51.840;7.258;2024-02-14T06:48:50;5.75;;;3.40;;
58446;SDS011;44240;51.840;7.258;2024-02-14T06:51:17;5.38;;;3.83;;
58446;SDS011;44240;51.840;7.258;2024-02-14T06:53:44;6.03;;;3.50;;
58446;SDS011;44240;51.840;7.258;2024-02-14T06:56:11;5.95;;;4.13;;
58446;SDS011;44240;51.840;7.258;2024-02-14T06:58:38;8.05;;;3.95;;
58446;SDS011;44240;51.840;7.258;2024-02-14T07:01:05;6.50;;;4.40;;
58446;SDS011;44240;51.840;7.258;2024-02-14T07:03:32;5.68;;;4.43;;
58446;SDS011;44240;51.840;7.258;2024-02-14T07:05:59;5.75;;;4.43;;
58446;SDS011;44240;51.840;7.258;2024-02-14T07:08:26;7.45;;;4.88;;
58446;SDS011;44240;51.840;7.258;2024-02-14T07:10:54;7.07;;;3.80;;
58446;SDS011;44240;51.840;7.258;2024-02-14T07:13:22;6.95;;;4.50;;
58446;SDS011;44240;51.840;7.258;2024-02-14T07:15:49;6.57;;;4.50;;
58446;SDS011;44240;51.840;7.258;2024-02-14T07:18:16;5.68;;;4.57;;
58446;SDS011;44240;51.840;7.258;2024-02-14T07:20:43;8.07;;;4.25;;
58446;SDS011;44240;51.840;7.258;2024-02-14T07:23:10;6.80;;;4.78;;
58446;SDS011;44240;51.840;7.258;2024-02-14T07:25:36;6.28;;;5.00;;
58446;SDS011;44240;51.840;7.258;2024-02-14T07:28:03;8.48;;;5.05;;
58446;SDS011;44240;51.840;7.258;2024-02-14T07:30:30;4.65;;;4.10;;
58446;SDS011;44240;51.840;7.258;2024-02-14T07:32:57;8.73;;;4.88;;
58446;SDS011;44240;51.840;7.258;2024-02-14T07:35:24;8.77;;;5.15;;
58446;SDS011;44240;51.840;7.258;2024-02-14T07:37:52;8.55;;;4.63;;
58446;SDS011;44240;51.840;7.258;2024-02-14T07:40:19;8.82;;;4.93;;
58446;SDS011;44240;51.840;7.258;2024-02-14T07:42:46;6.22;;;5.07;;
58446;SDS011;44240;51.840;7.258;2024-02-14T07:45:13;8.07;;;5.00;;
58446;SDS011;44240;51.840;7.258;2024-02-14T07:47:40;5.68;;;4.97;;
58446;SDS011;44240;51.840;7.258;2024-02-14T07:50:08;7.65;;;5.00;;
58446;SDS011;44240;51.840;7.258;2024-02-14T07:52:34;8.40;;;5.00;;
58446;SDS011;44240;51.840;7.258;2024-02-14T07:55:03;4.78;;;3.85;;
58446;SDS011;44240;51.840;7.258;2024-02-14T07:57:30;7.68;;;6.07;;
58446;SDS011;44240;51.840;7.258;2024-02-14T07:59:56;7.00;;;6.10;;
58446;SDS011;44240;51.840;7.258;2024-02-14T08:02:23;7.85;;;5.47;;
58446;SDS011;44240;51.840;7.258;2024-02-14T08:04:50;7.20;;;5.80;;
58446;SDS011;44240;51.840;7.258;2024-02-14T08:07:18;8.77;;;6.88;;
58446;SDS011;44240;51.840;7.258;2024-02-14T08:09:45;8.75;;;6.40;;
58446;SDS011;44240;51.840;7.258;2024-02-14T08:12:12;10.30;;;8.18;;
58446;SDS011;44240;51.840;7.258;2024-02-14T08:14:39;10.18;;;7.53;;
58446;SDS011;44240;51.840;7.258;2024-02-14T08:17:06;10.55;;;8.23;;
58446;SDS011;44240;51.840;7.258;2024-02-14T08:19:32;11.82;;;9.32;;
58446;SDS011;44240;51.840;7.258;2024-02-14T08:21:59;12.75;;;9.65;;
58446;SDS011;44240;51.840;7.258;2024-02-14T08:24:27;17.30;;;10.20;;
58446;SDS011;44240;51.840;7.258;2024-02-14T08:26:54;14.00;;;9.50;;
58446;SDS011;44240;51.840;7.258;2024-02-14T08:29:21;15.02;;;10.10;;
58446;SDS011;44240;51.840;7.258;2024-02-14T08:31:48;14.93;;;10.85;;
58446;SDS011;44240;51.840;7.258;2024-02-14T08:34:15;14.32;;;10.25;;
58446;SDS011;44240;51.840;7.258;2024-02-14T08:36:42;13.45;;;9.88;;
58446;SDS011;44240;51.840;7.258;2024-02-14T08:39:10;13.25;;;9.77;;
58446;SDS011;44240;51.840;7.258;2024-02-14T08:41:37;14.63;;;9.75;;
58446;SDS011;44240;51.840;7.258;2024-02-14T08:44:04;13.80;;;9.48;;
58446;SDS011;44240;51.840;7.258;2024-02-14T08:46:31;13.20;;;9.45;;
58446;SDS011;44240;51.840;7.258;2024-02-14T08:49:01;14.43;;;10.65;;
58446;SDS011;44240;51.840;7.258;2024-02-14T08:51:37;13.00;;;9.30;;
58446;SDS011;44240;51.840;7.258;2024-02-14T08:54:04;12.02;;;7.65;;
58446;SDS011;44240;51.840;7.258;2024-02-14T08:56:34;10.68;;;8.25;;
58446;SDS011;44240;51.840;7.258;2024-02-14T08:59:01;13.85;;;8.43;;
58446;SDS011;44240;51.840;7.258;2024-02-14T09:01:29;13.70;;;9.00;;
58446;SDS011;44240;51.840;7.258;2024-02-14T09:03:56;12.40;;;9.57;;
58446;SDS011;44240;51.840;7.258;2024-02-14T09:06:23;13.40;;;9.30;;
58446;SDS011;44240;51.840;7.258;2024-02-14T09:08:52;15.52;;;9.45;;
58446;SDS011;44240;51.840;7.258;2024-02-14T09:11:19;14.57;;;9.27;;
58446;SDS011;44240;51.840;7.258;2024-02-14T09:13:47;13.93;;;8.77;;
58446;SDS011;44240;51.840;7.258;2024-02-14T09:16:15;11.90;;;10.10;;
58446;SDS011;44240;51.840;7.258;2024-02-14T09:18:44;15.57;;;10.80;;
58446;SDS011;44240;51.840;7.258;2024-02-14T09:21:12;15.07;;;10.38;;
58446;SDS011;44240;51.840;7.258;2024-02-14T09:23:44;14.20;;;9.68;;
58446;SDS011;44240;51.840;7.258;2024-02-14T09:26:11;14.13;;;10.40;;
58446;SDS011;44240;51.840;7.258;2024-02-14T09:28:42;12.38;;;8.57;;
58446;SDS011;44240;51.840;7.258;2024-02-14T09:31:09;17.83;;;11.07;;
58446;SDS011;44240;51.840;7.258;2024-02-14T09:33:37;18.48;;;11.90;;
58446;SDS011;44240;51.840;7.258;2024-02-14T09:36:05;21.00;;;12.45;;
58446;SDS011;44240;51.840;7.258;2024-02-14T09:38:32;16.05;;;12.50;;
58446;SDS011;44240;51.840;7.258;2024-02-14T09:41:21;18.55;;;11.52;;
58446;SDS011;44240;51.840;7.258;2024-02-14T09:43:56;15.68;;;11.27;;
58446;SDS011;44240;51.840;7.258;2024-02-14T09:46:23;15.38;;;11.95;;
58446;SDS011;44240;51.840;7.258;2024-02-14T09:48:52;12.55;;;10.45;;
58446;SDS011;44240;51.840;7.258;2024-02-14T09:51:20;14.23;;;11.43;;
58446;SDS011;44240;51.840;7.258;2024-02-14T09:53:47;15.90;;;10.80;;
58446;SDS011;44240;51.840;7.258;2024-02-14T09:56:15;14.90;;;9.60;;
58446;SDS011;44240;51.840;7.258;2024-02-14T09:58:45;14.43;;;10.38;;
58446;SDS011;44240;51.840;7.258;2024-02-14T10:01:16;15.20;;;9.95;;
58446;SDS011;44240;51.840;7.258;2024-02-14T10:03:44;12.02;;;8.48;;
58446;SDS011;44240;51.840;7.258;2024-02-14T10:06:11;12.18;;;7.97;;
58446;SDS011;44240;51.840;7.258;2024-02-14T10:08:38;8.55;;;6.88;;
58446;SDS011;44240;51.840;7.258;2024-02-14T10:11:20;10.52;;;7.25;;
58446;SDS011;44240;51.840;7.258;2024-02-14T10:13:49;9.00;;;6.65;;
58446;SDS011;44240;51.840;7.258;2024-02-14T10:16:20;10.82;;;6.13;;
58446;SDS011;44240;51.840;7.258;2024-02-14T10:18:50;9.10;;;6.93;;
58446;SDS011;44240;51.840;7.258;2024-02-14T10:21:17;10.52;;;6.55;;
58446;SDS011;44240;51.840;7.258;2024-02-14T10:23:45;7.72;;;5.80;;
58446;SDS011;44240;51.840;7.258;2024-02-14T10:26:17;7.45;;;5.35;;
58446;SDS011;44240;51.840;7.258;2024-02-14T10:28:44;7.07;;;6.10;;
58446;SDS011;44240;51.840;7.258;2024-02-14T10:31:15;8.65;;;6.22;;
58446;SDS011;44240;51.840;7.258;2024-02-14T10:33:42;9.68;;;5.50;;
58446;SDS011;44240;51.840;7.258;2024-02-14T10:36:10;8.90;;;6.50;;
58446;SDS011;44240;51.840;7.258;2024-02-14T10:38:39;6.50;;;5.03;;
58446;SDS011;44240;51.840;7.258;2024-02-14T10:41:06;11.60;;;7.35;;
58446;SDS011;44240;51.840;7.258;2024-02-14T10:43:36;11.90;;;8.40;;
58446;SDS011;44240;51.840;7.258;2024-02-14T10:46:07;11.45;;;6.93;;
58446;SDS011;44240;51.840;7.258;2024-02-14T10:48:38;8.93;;;7.05;;
58446;SDS011;44240;51.840;7.258;2024-02-14T10:51:06;10.88;;;7.95;;
58446;SDS011;44240;51.840;7.258;2024-02-14T10:53:36;8.98;;;7.38;;
58446;SDS011;44240;51.840;7.258;2024-02-14T10:56:08;13.20;;;9.32;;
58446;SDS011;44240;51.840;7.258;2024-02-14T10:58:35;12.65;;;9.18;;
58446;SDS011;44240;51.840;7.258;2024-02-14T11:01:03;11.25;;;8.93;;
58446;SDS011;44240;51.840;7.258;2024-02-14T11:03:30;9.48;;;6.80;;
58446;SDS011;44240;51.840;7.258;2024-02-14T11:06:00;9.63;;;6.65;;
58446;SDS011;44240;51.840;7.258;2024-02-14T11:08:30;10.25;;;8.68;;
58446;SDS011;44240;51.840;7.258;2024-02-14T11:11:01;11.75;;;8.88;;
58446;SDS011;44240;51.840;7.258;2024-02-14T11:13:28;12.23;;;9.52;;
58446;SDS011;44240;51.840;7.258;2024-02-14T11:16:02;16.60;;;10.20;;
58446;SDS011;44240;51.840;7.258;2024-02-14T11:18:30;13.70;;;9.18;;
58446;SDS011;44240;51.840;7.258;2024-02-14T11:20:59;15.75;;;9.35;;
58446;SDS011;44240;51.840;7.258;2024-02-14T11:23:30;10.25;;;8.80;;
58446;SDS011;44240;51.840;7.258;2024-02-14T11:26:01;13.02;;;9.02;;
58446;SDS011;44240;51.840;7.258;2024-02-14T11:28:30;14.35;;;9.35;;
58446;SDS011;44240;51.840;7.258;2024-02-14T11:31:00;12.52;;;8.48;;
58446;SDS011;44240;51.840;7.258;2024-02-14T11:33:29;12.57;;;8.35;;
58446;SDS011;44240;51.840;7.258;2024-02-14T11:35:57;12.75;;;8.15;;
58446;SDS011;44240;51.840;7.258;2024-02-14T11:38:25;9.85;;;7.82;;
58446;SDS011;44240;51.840;7.258;2024-02-14T11:40:55;11.93;;;7.43;;
58446;SDS011;44240;51.840;7.258;2024-02-14T11:43:25;10.48;;;7.45;;
58446;SDS011;44240;51.840;7.258;2024-02-14T11:45:53;10.20;;;7.25;;
58446;SDS011;44240;51.840;7.258;2024-02-14T11:48:20;9.60;;;6.32;;
58446;SDS011;44240;51.840;7.258;2024-02-14T11:50:51;9.68;;;6.53;;
58446;SDS011;44240;51.840;7.258;2024-02-14T11:53:19;6.57;;;5.00;;
58446;SDS011;44240;51.840;7.258;2024-02-14T11:55:48;7.30;;;5.13;;
58446;SDS011;44240;51.840;7.258;2024-02-14T11:58:16;10.80;;;5.30;;
58446;SDS011;44240;51.840;7.258;2024-02-14T12:00:43;7.97;;;4.53;;
58446;SDS011;44240;51.840;7.258;2024-02-14T12:03:18;7.38;;;5.10;;
58446;SDS011;44240;51.840;7.258;2024-02-14T12:05:47;6.40;;;5.03;;
58446;SDS011;44240;51.840;7.258;2024-02-14T12:08:17;8.35;;;4.90;;
58446;SDS011;44240;51.840;7.258;2024-02-14T12:10:45;6.95;;;4.20;;
58446;SDS011;44240;51.840;7.258;2024-02-14T12:13:21;4.82;;;4.10;;
58446;SDS011;44240;51.840;7.258;2024-02-14T12:15:49;5.18;;;4.00;;
58446;SDS011;44240;51.840;7.258;2024-02-14T12:18:18;5.65;;;3.70;;
58446;SDS011;44240;51.840;7.258;2024-02-14T12:20:47;5.97;;;3.53;;
58446;SDS011;44240;51.840;7.258;2024-02-14T12:23:20;5.82;;;3.47;;
58446;SDS011;44240;51.840;7.258;2024-02-14T12:25:48;3.53;;;3.05;;
58446;SDS011;44240;51.840;7.258;2024-02-14T12:28:16;4.72;;;2.80;;
58446;SDS011;44240;51.840;7.258;2024-02-14T12:30:47;6.10;;;2.67;;
58446;SDS011;44240;51.840;7.258;2024-02-14T12:33:16;5.07;;;3.10;;
58446;SDS011;44240;51.840;7.258;2024-02-14T12:35:44;5.15;;;3.10;;
58446;SDS011;44240;51.840;7.258;2024-02-14T12:38:13;3.95;;;2.63;;
58446;SDS011;44240;51.840;7.258;2024-02-14T12:40:42;4.65;;;3.20;;
58446;SDS011;44240;51.840;7.258;2024-02-14T12:43:10;4.63;;;2.67;;
58446;SDS011;44240;51.840;7.258;2024-02-14T12:45:38;5.68;;;2.70;;
58446;SDS011;44240;51.840;7.258;2024-02-14T12:48:05;4.97;;;2.92;;
58446;SDS011;44240;51.840;7.258;2024-02-14T12:50:35;3.45;;;2.42;;
58446;SDS011;44240;51.840;7.258;2024-02-14T12:53:04;3.30;;;2.08;;
58446;SDS011;44240;51.840;7.258;2024-02-14T12:55:31;3.45;;;2.05;;
58446;SDS011;44240;51.840;7.258;2024-02-14T12:57:58;2.50;;;1.88;;
58446;SDS011;44240;51.840;7.258;2024-02-14T13:00:25;2.38;;;1.55;;
58446;SDS011;44240;51.840;7.258;2024-02-14T13:02:53;3.55;;;2.45;;
58446;SDS011;44240;51.840;7.258;2024-02-14T13:05:20;2.97;;;2.10;;
58446;SDS011;44240;51.840;7.258;2024-02-14T13:07:47;5.32;;;1.85;;
58446;SDS011;44240;51.840;7.258;2024-02-14T13:10:14;3.72;;;1.83;;
58446;SDS011;44240;51.840;7.258;2024-02-14T13:12:40;2.95;;;2.00;;
58446;SDS011;44240;51.840;7.258;2024-02-14T13:15:09;4.15;;;2.30;;
58446;SDS011;44240;51.840;7.258;2024-02-14T13:17:37;3.50;;;1.98;;
58446;SDS011;44240;51.840;7.258;2024-02-14T13:20:04;2.55;;;1.80;;
58446;SDS011;44240;51.840;7.258;2024-02-14T13:22:32;3.13;;;2.28;;
58446;SDS011;44240;51.840;7.258;2024-02-14T13:24:59;3.63;;;1.88;;
58446;SDS011;44240;51.840;7.258;2024-02-14T13:27:29;1.50;;;1.33;;
58446;SDS011;44240;51.840;7.258;2024-02-14T13:29:56;2.20;;;1.70;;
58446;SDS011;44240;51.840;7.258;2024-02-14T13:32:22;3.38;;;1.50;;
58446;SDS011;44240;51.840;7.258;2024-02-14T13:34:49;1.90;;;1.52;;
58446;SDS011;44240;51.840;7.258;2024-02-14T13:37:16;1.90;;;1.42;;
58446;SDS011;44240;51.840;7.258;2024-02-14T13:39:43;2.05;;;1.40;;
58446;SDS011;44240;51.840;7.258;2024-02-14T13:42:10;3.00;;;1.63;;
58446;SDS011;44240;51.840;7.258;2024-02-14T13:44:37;2.25;;;1.55;;
58446;SDS011;44240;51.840;7.258;2024-02-14T13:47:04;1.50;;;1.30;;
58446;SDS011;44240;51.840;7.258;2024-02-14T13:49:31;2.50;;;1.60;;
58446;SDS011;44240;51.840;7.258;2024-02-14T13:51:58;2.40;;;1.95;;
58446;SDS011;44240;51.840;7.258;2024-02-14T13:54:24;2.67;;;2.45;;
58446;SDS011;44240;51.840;7.258;2024-02-14T13:56:51;2.85;;;2.65;;
58446;SDS011;44240;51.840;7.258;2024-02-14T13:59:18;3.30;;;2.90;;
58446;SDS011;44240;51.840;7.258;2024-02-14T14:01:45;3.05;;;2.30;;
58446;SDS011;44240;51.840;7.258;2024-02-14T14:04:13;2.85;;;2.65;;
58446;SDS011;44240;51.840;7.258;2024-02-14T14:06:41;3.10;;;2.53;;
58446;SDS011;44240;51.840;7.258;2024-02-14T14:09:07;3.60;;;2.65;;
58446;SDS011;44240;51.840;7.258;2024-02-14T14:11:36;3.35;;;3.05;;
58446;SDS011;44240;51.840;7.258;2024-02-14T14:14:04;3.90;;;3.55;;
58446;SDS011;44240;51.840;7.258;2024-02-14T14:16:31;3.83;;;3.42;;
58446;SDS011;44240;51.840;7.258;2024-02-14T14:19:01;4.60;;;4.20;;
58446;SDS011;44240;51.840;7.258;2024-02-14T14:21:30;4.65;;;3.70;;
58446;SDS011;44240;51.840;7.258;2024-02-14T14:23:57;4.88;;;4.47;;
58446;SDS011;44240;51.840;7.258;2024-02-14T14:26:24;4.95;;;4.55;;
58446;SDS011;44240;51.840;7.258;2024-02-14T14:28:51;4.50;;;4.05;;
58446;SDS011;44240;51.840;7.258;2024-02-14T14:31:20;5.28;;;4.75;;
58446;SDS011;44240;51.840;7.258;2024-02-14T14:33:47;6.03;;;4.55;;
58446;SDS011;44240;51.840;7.258;2024-02-14T14:36:15;6.07;;;5.03;;
58446;SDS011;44240;51.840;7.258;2024-02-14T14:38:42;6.03;;;5.25;;
58446;SDS011;44240;51.840;7.258;2024-02-14T14:41:09;5.78;;;5.18;;
58446;SDS011;44240;51.840;7.258;2024-02-14T14:43:36;5.30;;;4.72;;
58446;SDS011;44240;51.840;7.258;2024-02-14T14:46:03;6.00;;;5.40;;
58446;SDS011;44240;51.840;7.258;2024-02-14T14:48:30;7.22;;;5.63;;